Wetterdaten: Woche 12.11.12 - 18.11.12 (KW46)
Datum Zeit Temperatur Luftfeuchte Luftdruck Niederschlag Windrichtung Sonnenschein Solar Wind
12.11.2012 00:00 7,1 C 98 % 1019,2 hPa 0,2 l/m N 0,00 h 0 W/m 1,6 km/h (1 Bft)
12.11.2012 01:00 6,9 C 99 % 1019,6 hPa 0,0 l/m N 0,00 h 0 W/m 0,1 km/h (0 Bft)
12.11.2012 02:00 6,9 C 99 % 1020,3 hPa 0,2 l/m N 0,00 h 0 W/m 0,0 km/h (0 Bft)
12.11.2012 03:00 6,9 C 99 % 1020,5 hPa 0,4 l/m N-NO 0,00 h 0 W/m 2,0 km/h (1 Bft)
12.11.2012 04:00 6,8 C 99 % 1020,7 hPa 0,4 l/m N-NO 0,00 h 0 W/m 5,3 km/h (1 Bft)
12.11.2012 05:00 6,5 C 99 % 1021,4 hPa 0,2 l/m NO 0,00 h 0 W/m 7,2 km/h (2 Bft)
12.11.2012 06:00 6,2 C 99 % 1021,5 hPa 0,0 l/m NO 0,00 h 0 W/m 5,3 km/h (1 Bft)
12.11.2012 07:00 6,1 C 99 % 1022,1 hPa 0,2 l/m NO 0,00 h 0 W/m 3,9 km/h (1 Bft)
12.11.2012 08:00 6,1 C 99 % 1022,6 hPa 0,0 l/m NO 0,00 h 11 W/m 4,3 km/h (1 Bft)
12.11.2012 09:00 6,3 C 99 % 1023,3 hPa 0,2 l/m N 0,00 h 28 W/m 3,3 km/h (1 Bft)
12.11.2012 10:00 6,5 C 99 % 1023,9 hPa 0,4 l/m N 0,00 h 31 W/m 2,1 km/h (1 Bft)
12.11.2012 11:00 6,8 C 99 % 1024,1 hPa 0,0 l/m NO 0,00 h 62 W/m 4,4 km/h (1 Bft)
12.11.2012 12:00 7,2 C 99 % 1024,0 hPa 0,0 l/m NO 0,00 h 65 W/m 5,2 km/h (1 Bft)
12.11.2012 13:00 7,3 C 98 % 1023,7 hPa 0,0 l/m NO 0,00 h 38 W/m 6,4 km/h (2 Bft)
12.11.2012 14:00 7,1 C 97 % 1024,3 hPa 0,0 l/m NO 0,00 h 22 W/m 6,4 km/h (2 Bft)
12.11.2012 15:00 6,9 C 97 % 1024,8 hPa 0,0 l/m NO 0,00 h 13 W/m 6,0 km/h (2 Bft)
12.11.2012 16:00 6,7 C 96 % 1025,1 hPa 0,0 l/m NO 0,00 h 7 W/m 5,1 km/h (1 Bft)
12.11.2012 17:00 6,4 C 97 % 1025,5 hPa 0,0 l/m NO 0,00 h 0 W/m 4,9 km/h (1 Bft)
12.11.2012 18:00 6,1 C 97 % 1026,1 hPa 0,2 l/m N 0,00 h 0 W/m 2,4 km/h (1 Bft)
12.11.2012 19:00 5,9 C 97 % 1026,6 hPa 0,0 l/m NO 0,00 h 0 W/m 2,8 km/h (1 Bft)
12.11.2012 20:00 5,9 C 97 % 1027,1 hPa 0,0 l/m NO 0,00 h 0 W/m 4,4 km/h (1 Bft)
12.11.2012 21:00 5,9 C 97 % 1027,5 hPa 0,0 l/m NO 0,00 h 0 W/m 3,9 km/h (1 Bft)
12.11.2012 22:00 5,9 C 97 % 1027,9 hPa 0,0 l/m NO 0,00 h 0 W/m 4,7 km/h (1 Bft)
12.11.2012 23:00 5,7 C 97 % 1028,1 hPa 0,0 l/m NO 0,00 h 0 W/m 5,9 km/h (2 Bft)
13.11.2012 00:00 5,5 C 97 % 1028,3 hPa 0,0 l/m NO 0,00 h 0 W/m 6,7 km/h (2 Bft)
13.11.2012 01:00 5,2 C 97 % 1028,4 hPa 0,0 l/m NO 0,00 h 0 W/m 7,1 km/h (2 Bft)
13.11.2012 02:00 5,2 C 97 % 1028,6 hPa 0,0 l/m NO 0,00 h 0 W/m 6,3 km/h (2 Bft)
13.11.2012 03:00 5,2 C 97 % 1028,6 hPa 0,0 l/m NO 0,00 h 0 W/m 6,3 km/h (2 Bft)
13.11.2012 04:00 5,1 C 97 % 1028,8 hPa 0,0 l/m NO 0,00 h 0 W/m 5,9 km/h (2 Bft)
13.11.2012 05:00 4,8 C 97 % 1029,2 hPa 0,0 l/m NO 0,00 h 0 W/m 6,9 km/h (2 Bft)
13.11.2012 06:00 4,4 C 96 % 1029,6 hPa 0,0 l/m NO 0,00 h 0 W/m 6,0 km/h (2 Bft)
13.11.2012 07:00 4,2 C 96 % 1030,1 hPa 0,0 l/m NO 0,00 h 9 W/m 7,1 km/h (2 Bft)
13.11.2012 08:00 4,2 C 96 % 1030,8 hPa 0,0 l/m NO 0,00 h 30 W/m 7,4 km/h (2 Bft)
13.11.2012 09:00 4,3 C 96 % 1030,9 hPa 0,0 l/m NO 0,00 h 48 W/m 7,0 km/h (2 Bft)
13.11.2012 10:00 5,0 C 94 % 1031,2 hPa 0,0 l/m NO 0,00 h 68 W/m 8,9 km/h (2 Bft)
13.11.2012 11:00 5,4 C 94 % 1030,9 hPa 0,0 l/m NO 0,00 h 69 W/m 7,9 km/h (2 Bft)
13.11.2012 12:00 5,9 C 94 % 1030,4 hPa 0,0 l/m NO 0,00 h 67 W/m 8,2 km/h (2 Bft)
13.11.2012 13:00 6,2 C 92 % 1030,1 hPa 0,0 l/m O-NO 0,00 h 50 W/m 11,8 km/h (2 Bft)
13.11.2012 14:00 6,2 C 92 % 1030,0 hPa 0,0 l/m O-NO 0,00 h 38 W/m 12,3 km/h (3 Bft)
13.11.2012 15:00 6,2 C 92 % 1029,9 hPa 0,0 l/m O-NO 0,00 h 16 W/m 10,4 km/h (2 Bft)
13.11.2012 16:00 6,0 C 92 % 1029,7 hPa 0,0 l/m O 0,00 h 6 W/m 10,7 km/h (2 Bft)
13.11.2012 17:00 5,9 C 92 % 1029,4 hPa 0,0 l/m O 0,00 h 0 W/m 12,2 km/h (2 Bft)
13.11.2012 18:00 6,0 C 92 % 1029,3 hPa 0,0 l/m O-NO 0,00 h 0 W/m 12,8 km/h (3 Bft)
13.11.2012 19:00 6,0 C 92 % 1028,9 hPa 0,0 l/m O 0,00 h 0 W/m 10,6 km/h (2 Bft)
13.11.2012 20:00 5,9 C 93 % 1028,9 hPa 0,0 l/m O-SO 0,00 h 0 W/m 15,4 km/h (3 Bft)
13.11.2012 21:00 6,0 C 93 % 1028,8 hPa 0,0 l/m O 0,00 h 0 W/m 7,6 km/h (2 Bft)
13.11.2012 22:00 6,1 C 93 % 1028,6 hPa 0,0 l/m O 0,00 h 0 W/m 11,8 km/h (2 Bft)
13.11.2012 23:00 6,2 C 92 % 1028,2 hPa 0,0 l/m O 0,00 h 0 W/m 10,6 km/h (2 Bft)
14.11.2012 00:00 6,2 C 92 % 1028,2 hPa 0,0 l/m O-NO 0,00 h 0 W/m 8,8 km/h (2 Bft)
14.11.2012 01:00 6,0 C 92 % 1028,1 hPa 0,0 l/m O-SO 0,00 h 0 W/m 11,9 km/h (2 Bft)
14.11.2012 02:00 5,9 C 92 % 1028,1 hPa 0,0 l/m O-SO 0,00 h 0 W/m 7,4 km/h (2 Bft)
14.11.2012 03:00 5,9 C 92 % 1027,8 hPa 0,0 l/m O-SO 0,00 h 0 W/m 7,0 km/h (2 Bft)
14.11.2012 04:00 5,9 C 92 % 1027,5 hPa 0,0 l/m SO 0,00 h 0 W/m 5,5 km/h (1 Bft)
14.11.2012 05:00 5,8 C 92 % 1027,3 hPa 0,0 l/m SO 0,00 h 0 W/m 5,1 km/h (1 Bft)
14.11.2012 06:00 5,7 C 92 % 1027,3 hPa 0,0 l/m O-SO 0,00 h 0 W/m 8,2 km/h (2 Bft)
14.11.2012 07:00 5,7 C 92 % 1027,3 hPa 0,0 l/m O-SO 0,00 h 5 W/m 7,6 km/h (2 Bft)
14.11.2012 08:00 5,6 C 92 % 1027,1 hPa 0,0 l/m O-SO 0,00 h 18 W/m 11,4 km/h (2 Bft)
14.11.2012 09:00 5,7 C 91 % 1026,9 hPa 0,0 l/m SO 0,00 h 46 W/m 10,2 km/h (2 Bft)
14.11.2012 10:00 6,1 C 89 % 1026,8 hPa 0,0 l/m O-SO 0,00 h 75 W/m 10,1 km/h (2 Bft)
14.11.2012 11:00 6,9 C 87 % 1026,3 hPa 0,0 l/m O-SO 0,33 h 265 W/m 12,3 km/h (3 Bft)
14.11.2012 12:00 7,6 C 83 % 1025,7 hPa 0,0 l/m O-NO 0,42 h 275 W/m 12,4 km/h (3 Bft)
14.11.2012 13:00 7,6 C 84 % 1025,2 hPa 0,0 l/m O-NO 0,33 h 203 W/m 11,1 km/h (2 Bft)
14.11.2012 14:00 7,9 C 83 % 1024,7 hPa 0,0 l/m O-NO 0,67 h 211 W/m 12,5 km/h (3 Bft)
14.11.2012 15:00 7,2 C 85 % 1024,5 hPa 0,0 l/m O-NO 0,25 h 84 W/m 11,8 km/h (2 Bft)
14.11.2012 16:00 6,5 C 86 % 1024,5 hPa 0,0 l/m O-NO 0,17 h 19 W/m 7,2 km/h (2 Bft)
14.11.2012 17:00 5,5 C 89 % 1024,7 hPa 0,0 l/m O-NO 0,00 h 0 W/m 4,5 km/h (1 Bft)
14.11.2012 18:00 5,1 C 91 % 1024,6 hPa 0,0 l/m O-NO 0,00 h 0 W/m 7,2 km/h (2 Bft)
14.11.2012 19:00 5,0 C 91 % 1024,3 hPa 0,0 l/m O 0,00 h 0 W/m 9,5 km/h (2 Bft)
14.11.2012 20:00 4,8 C 91 % 1024,1 hPa 0,0 l/m O-SO 0,00 h 0 W/m 7,2 km/h (2 Bft)
14.11.2012 21:00 4,7 C 91 % 1023,9 hPa 0,0 l/m O-SO 0,00 h 0 W/m 8,0 km/h (2 Bft)
14.11.2012 22:00 4,3 C 92 % 1023,6 hPa 0,0 l/m O-SO 0,00 h 0 W/m 4,5 km/h (1 Bft)
14.11.2012 23:00 4,1 C 93 % 1023,5 hPa 0,0 l/m O-SO 0,00 h 0 W/m 4,1 km/h (1 Bft)
15.11.2012 00:00 3,9 C 94 % 1023,5 hPa 0,0 l/m O-SO 0,00 h 0 W/m 3,7 km/h (1 Bft)
15.11.2012 01:00 3,7 C 94 % 1023,3 hPa 0,0 l/m N 0,00 h 0 W/m 2,8 km/h (1 Bft)
15.11.2012 02:00 3,4 C 95 % 1023,0 hPa 0,0 l/m N 0,00 h 0 W/m 1,9 km/h (1 Bft)
15.11.2012 03:00 3,2 C 95 % 1022,9 hPa 0,0 l/m O-SO 0,00 h 0 W/m 3,1 km/h (1 Bft)
15.11.2012 04:00 2,9 C 95 % 1022,6 hPa 0,0 l/m O-SO 0,00 h 0 W/m 3,6 km/h (1 Bft)
15.11.2012 05:00 2,7 C 96 % 1022,7 hPa 0,0 l/m SO 0,00 h 0 W/m 5,9 km/h (2 Bft)
15.11.2012 06:00 2,5 C 96 % 1022,7 hPa 0,0 l/m W-SW 0,00 h 0 W/m 7,1 km/h (2 Bft)
15.11.2012 07:00 2,3 C 97 % 1022,8 hPa 0,0 l/m W-SW 0,00 h 6 W/m 6,4 km/h (2 Bft)
15.11.2012 08:00 2,6 C 97 % 1023,0 hPa 0,0 l/m W-SW 0,00 h 17 W/m 7,1 km/h (2 Bft)
15.11.2012 09:00 3,1 C 98 % 1022,9 hPa 0,0 l/m W-SW 0,00 h 35 W/m 6,0 km/h (2 Bft)
15.11.2012 10:00 3,7 C 98 % 1022,6 hPa 0,0 l/m W-SW 0,00 h 60 W/m 6,8 km/h (2 Bft)
15.11.2012 11:00 4,3 C 97 % 1022,2 hPa 0,0 l/m W-SW 0,00 h 70 W/m 4,1 km/h (1 Bft)
15.11.2012 12:00 4,8 C 95 % 1021,5 hPa 0,0 l/m N 0,00 h 84 W/m 2,8 km/h (1 Bft)
15.11.2012 13:00 5,3 C 95 % 1020,8 hPa 0,0 l/m W-SW 0,00 h 68 W/m 3,1 km/h (1 Bft)
15.11.2012 14:00 5,2 C 95 % 1020,4 hPa 0,0 l/m W-SW 0,00 h 44 W/m 1,9 km/h (1 Bft)
15.11.2012 15:00 5,3 C 95 % 1020,4 hPa 0,0 l/m W-SW 0,00 h 23 W/m 2,4 km/h (1 Bft)
15.11.2012 16:00 5,1 C 95 % 1020,4 hPa 0,0 l/m W-SW 0,00 h 7 W/m 2,8 km/h (1 Bft)
15.11.2012 17:00 4,7 C 95 % 1020,6 hPa 0,0 l/m N 0,00 h 0 W/m 3,5 km/h (1 Bft)
15.11.2012 18:00 4,3 C 96 % 1020,9 hPa 0,0 l/m N 0,00 h 0 W/m 1,9 km/h (1 Bft)
15.11.2012 19:00 4,3 C 96 % 1020,8 hPa 0,0 l/m N 0,00 h 0 W/m 2,4 km/h (1 Bft)
15.11.2012 20:00 4,1 C 97 % 1020,6 hPa 0,0 l/m W-SW 0,00 h 0 W/m 3,2 km/h (1 Bft)
15.11.2012 21:00 4,1 C 97 % 1020,5 hPa 0,0 l/m W-SW 0,00 h 0 W/m 4,1 km/h (1 Bft)
15.11.2012 22:00 4,1 C 97 % 1020,2 hPa 0,0 l/m W-SW 0,00 h 0 W/m 4,0 km/h (1 Bft)
15.11.2012 23:00 4,0 C 97 % 1020,1 hPa 0,0 l/m W-SW 0,00 h 0 W/m 4,8 km/h (1 Bft)
16.11.2012 00:00 3,8 C 97 % 1020,0 hPa 0,0 l/m W-SW 0,00 h 0 W/m 4,4 km/h (1 Bft)
16.11.2012 01:00 3,5 C 97 % 1019,6 hPa 0,0 l/m SW 0,00 h 0 W/m 9,0 km/h (2 Bft)
16.11.2012 02:00 3,2 C 97 % 1019,6 hPa 0,0 l/m SW 0,00 h 0 W/m 9,1 km/h (2 Bft)
16.11.2012 03:00 3,3 C 97 % 1019,3 hPa 0,0 l/m SW 0,00 h 0 W/m 5,3 km/h (1 Bft)
16.11.2012 04:00 3,4 C 98 % 1019,3 hPa 0,0 l/m SW 0,00 h 0 W/m 7,4 km/h (2 Bft)
16.11.2012 05:00 3,3 C 98 % 1019,1 hPa 0,0 l/m SW 0,00 h 0 W/m 9,8 km/h (2 Bft)
16.11.2012 06:00 3,2 C 98 % 1019,3 hPa 0,0 l/m SW 0,00 h 0 W/m 9,4 km/h (2 Bft)
16.11.2012 07:00 3,2 C 98 % 1019,3 hPa 0,0 l/m SW 0,00 h 5 W/m 7,8 km/h (2 Bft)
16.11.2012 08:00 3,3 C 98 % 1019,4 hPa 0,0 l/m SW 0,00 h 16 W/m 8,0 km/h (2 Bft)
16.11.2012 09:00 3,4 C 98 % 1019,7 hPa 0,0 l/m SW 0,00 h 34 W/m 8,6 km/h (2 Bft)
16.11.2012 10:00 3,7 C 99 % 1019,6 hPa 0,0 l/m SW 0,00 h 57 W/m 8,2 km/h (2 Bft)
16.11.2012 11:00 4,1 C 99 % 1019,3 hPa 0,0 l/m SW 0,00 h 64 W/m 7,5 km/h (2 Bft)
16.11.2012 12:00 4,4 C 99 % 1018,7 hPa 0,0 l/m S-SW 0,00 h 72 W/m 7,1 km/h (2 Bft)
16.11.2012 13:00 4,8 C 98 % 1018,1 hPa 0,0 l/m S-SW 0,00 h 66 W/m 5,3 km/h (1 Bft)
16.11.2012 14:00 4,9 C 98 % 1017,6 hPa 0,0 l/m S-SW 0,00 h 49 W/m 4,7 km/h (1 Bft)
16.11.2012 15:00 4,8 C 97 % 1017,5 hPa 0,0 l/m N 0,00 h 24 W/m 3,2 km/h (1 Bft)
16.11.2012 16:00 4,5 C 96 % 1017,3 hPa 0,0 l/m S-SW 0,00 h 8 W/m 3,1 km/h (1 Bft)
16.11.2012 17:00 4,1 C 96 % 1017,4 hPa 0,0 l/m S-SW 0,00 h 0 W/m 2,1 km/h (1 Bft)
16.11.2012 18:00 3,8 C 96 % 1017,5 hPa 0,0 l/m S-SW 0,00 h 0 W/m 2,4 km/h (1 Bft)
16.11.2012 19:00 3,4 C 97 % 1017,3 hPa 0,0 l/m S-SW 0,00 h 0 W/m 3,5 km/h (1 Bft)
16.11.2012 20:00 3,2 C 97 % 1017,2 hPa 0,0 l/m N 0,00 h 0 W/m 3,3 km/h (1 Bft)
16.11.2012 21:00 3,0 C 97 % 1016,9 hPa 0,0 l/m N 0,00 h 0 W/m 1,9 km/h (1 Bft)
16.11.2012 22:00 2,7 C 97 % 1016,6 hPa 0,0 l/m S-SW 0,00 h 0 W/m 2,0 km/h (1 Bft)
16.11.2012 23:00 2,3 C 97 % 1016,6 hPa 0,0 l/m S-SW 0,00 h 0 W/m 3,9 km/h (1 Bft)
17.11.2012 00:00 2,0 C 97 % 1016,5 hPa 0,0 l/m S-SW 0,00 h 0 W/m 4,3 km/h (1 Bft)
17.11.2012 01:00 1,6 C 97 % 1016,2 hPa 0,0 l/m S-SW 0,00 h 0 W/m 5,6 km/h (1 Bft)
17.11.2012 02:00 1,3 C 98 % 1016,1 hPa 0,0 l/m SW 0,00 h 0 W/m 7,0 km/h (2 Bft)
17.11.2012 03:00 1,3 C 98 % 1015,6 hPa 0,0 l/m SW 0,00 h 0 W/m 9,0 km/h (2 Bft)
17.11.2012 04:00 1,3 C 98 % 1015,2 hPa 0,0 l/m W-SW 0,00 h 0 W/m 6,8 km/h (2 Bft)
17.11.2012 05:00 1,9 C 99 % 1015,0 hPa 0,0 l/m W-SW 0,00 h 0 W/m 9,1 km/h (2 Bft)
17.11.2012 06:00 2,4 C 99 % 1015,0 hPa 0,0 l/m SW 0,00 h 0 W/m 8,0 km/h (2 Bft)
17.11.2012 07:00 2,7 C 99 % 1015,1 hPa 0,0 l/m SW 0,00 h 5 W/m 8,4 km/h (2 Bft)
17.11.2012 08:00 2,7 C 99 % 1015,2 hPa 0,0 l/m W-SW 0,00 h 12 W/m 9,2 km/h (2 Bft)
17.11.2012 09:00 2,7 C 99 % 1015,2 hPa 0,0 l/m W-SW 0,00 h 27 W/m 10,3 km/h (2 Bft)
17.11.2012 10:00 2,9 C 99 % 1015,4 hPa 0,0 l/m SW 0,00 h 38 W/m 11,2 km/h (2 Bft)
17.11.2012 11:00 3,1 C 99 % 1015,1 hPa 0,0 l/m SW 0,00 h 44 W/m 9,5 km/h (2 Bft)
17.11.2012 12:00 3,2 C 99 % 1014,6 hPa 0,0 l/m SW 0,00 h 58 W/m 9,7 km/h (2 Bft)
17.11.2012 13:00 3,5 C 99 % 1014,1 hPa 0,0 l/m SW 0,00 h 71 W/m 8,9 km/h (2 Bft)
17.11.2012 14:00 3,7 C 99 % 1013,8 hPa 0,0 l/m W-SW 0,00 h 47 W/m 6,8 km/h (2 Bft)
17.11.2012 15:00 3,9 C 99 % 1013,7 hPa 0,0 l/m W-SW 0,00 h 25 W/m 5,6 km/h (1 Bft)
17.11.2012 16:00 3,8 C 99 % 1013,6 hPa 0,0 l/m W-SW 0,00 h 7 W/m 7,4 km/h (2 Bft)
17.11.2012 17:00 3,8 C 99 % 1013,6 hPa 0,0 l/m SW 0,00 h 0 W/m 5,6 km/h (1 Bft)
17.11.2012 18:00 3,8 C 99 % 1013,6 hPa 0,0 l/m SW 0,00 h 0 W/m 6,8 km/h (2 Bft)
17.11.2012 19:00 3,6 C 99 % 1013,6 hPa 0,0 l/m SW 0,00 h 0 W/m 5,5 km/h (1 Bft)
17.11.2012 20:00 3,5 C 99 % 1013,5 hPa 0,0 l/m SW 0,00 h 0 W/m 4,5 km/h (1 Bft)
17.11.2012 21:00 3,3 C 99 % 1013,7 hPa 0,0 l/m SW 0,00 h 0 W/m 4,1 km/h (1 Bft)
17.11.2012 22:00 3,2 C 99 % 1013,7 hPa 0,0 l/m SW 0,00 h 0 W/m 3,7 km/h (1 Bft)
17.11.2012 23:00 3,1 C 99 % 1013,4 hPa 0,0 l/m SW 0,00 h 0 W/m 4,4 km/h (1 Bft)
18.11.2012 00:00 3,2 C 99 % 1013,3 hPa 0,0 l/m SW 0,00 h 0 W/m 1,2 km/h (1 Bft)
18.11.2012 01:00 3,2 C 99 % 1013,0 hPa 0,0 l/m SW 0,00 h 0 W/m 3,1 km/h (1 Bft)
18.11.2012 02:00 3,1 C 99 % 1012,8 hPa 0,0 l/m SW 0,00 h 0 W/m 2,1 km/h (1 Bft)
18.11.2012 03:00 2,9 C 99 % 1012,6 hPa 0,0 l/m SW 0,00 h 0 W/m 3,1 km/h (1 Bft)
18.11.2012 04:00 2,3 C 99 % 1012,5 hPa 0,0 l/m SW 0,00 h 0 W/m 3,6 km/h (1 Bft)
18.11.2012 05:00 2,2 C 99 % 1012,5 hPa 0,0 l/m SW 0,00 h 0 W/m 5,2 km/h (1 Bft)
18.11.2012 06:00 2,1 C 99 % 1012,7 hPa 0,0 l/m SW 0,00 h 0 W/m 5,7 km/h (1 Bft)
18.11.2012 07:00 2,3 C 99 % 1012,9 hPa 0,0 l/m SW 0,00 h 5 W/m 7,2 km/h (2 Bft)
18.11.2012 08:00 2,6 C 99 % 1013,1 hPa 0,0 l/m SW 0,00 h 26 W/m 4,8 km/h (1 Bft)
18.11.2012 09:00 3,2 C 99 % 1013,6 hPa 0,0 l/m SW 0,00 h 59 W/m 6,8 km/h (2 Bft)
18.11.2012 10:00 3,6 C 99 % 1013,9 hPa 0,0 l/m SW 0,00 h 72 W/m 7,5 km/h (2 Bft)
18.11.2012 11:00 4,3 C 99 % 1013,8 hPa 0,0 l/m SW 0,00 h 103 W/m 6,1 km/h (2 Bft)
18.11.2012 12:00 5,3 C 98 % 1013,5 hPa 0,0 l/m SW 0,00 h 175 W/m 6,7 km/h (2 Bft)
18.11.2012 13:00 5,9 C 96 % 1013,2 hPa 0,0 l/m SW 0,00 h 116 W/m 5,2 km/h (1 Bft)
18.11.2012 14:00 5,8 C 97 % 1013,3 hPa 0,0 l/m SW 0,00 h 68 W/m 6,5 km/h (2 Bft)
18.11.2012 15:00 6,0 C 97 % 1013,4 hPa 0,0 l/m SW 0,00 h 52 W/m 2,5 km/h (1 Bft)
18.11.2012 16:00 5,9 C 97 % 1013,5 hPa 0,0 l/m N 0,25 h 19 W/m 0,7 km/h (0 Bft)
18.11.2012 17:00 5,2 C 96 % 1013,9 hPa 0,0 l/m N 0,00 h 0 W/m 0,3 km/h (0 Bft)
18.11.2012 18:00 4,4 C 96 % 1014,3 hPa 0,0 l/m N 0,00 h 0 W/m 0,3 km/h (0 Bft)
18.11.2012 19:00 3,4 C 96 % 1014,8 hPa 0,0 l/m N 0,00 h 0 W/m 0,1 km/h (0 Bft)
18.11.2012 20:00 2,4 C 96 % 1015,2 hPa 0,0 l/m N 0,00 h 0 W/m 0,1 km/h (0 Bft)
18.11.2012 21:00 2,0 C 97 % 1015,3 hPa 0,0 l/m N 0,00 h 0 W/m 0,0 km/h (0 Bft)
18.11.2012 22:00 1,6 C 97 % 1015,5 hPa 0,0 l/m N 0,00 h 0 W/m 0,3 km/h (0 Bft)
18.11.2012 23:00 1,4 C 97 % 1015,7 hPa 0,0 l/m N 0,00 h 0 W/m 1,2 km/h (1 Bft)
Min-Datum _ 17.11.12 14.11.12 18.11.12 - - - - 12.11.12
_ Min-Zeit 03:50 12:20 02:55 - - - - 00:20
Minimum _ 1,1 C 81 % 1012,4 hPa - - - - 0,0 km/h (0 Bft)
Max-Datum _ 14.11.12 18.11.12 13.11.12 12.11.12 - 14.11.12 14.11.12 13.11.12
_ Max-Zeit 14:15 11:00 10:30 03:20 - 11:30 12:05 20:10
Maximum _ 8,3 C 100 % 1031,3 hPa 0,4 l/m - 0,08 h 545 W/m 24,1 km/h
O-SO (4 Bft)
Durchschnitt _ 4,5 C 96 % 1021,1 hPa #2,4 l/m SW #2:25 h 54 W/m 6,0 km/h (2 Bft)